sensor_id;sensor_type;location;lat;lon;timestamp;P1;durP1;ratioP1;P2;durP2;ratioP2
42084;SDS011;27746;52.228;20.890;2023-09-19T00:00:19;16.48;;;11.32;;
42084;SDS011;27746;52.228;20.890;2023-09-19T00:02:52;13.15;;;9.68;;
42084;SDS011;27746;52.228;20.890;2023-09-19T00:05:20;16.90;;;10.05;;
42084;SDS011;27746;52.228;20.890;2023-09-19T00:07:49;15.23;;;9.82;;
42084;SDS011;27746;52.228;20.890;2023-09-19T00:10:18;17.23;;;9.93;;
42084;SDS011;27746;52.228;20.890;2023-09-19T00:12:47;13.48;;;9.55;;
42084;SDS011;27746;52.228;20.890;2023-09-19T00:15:14;18.35;;;11.25;;
42084;SDS011;27746;52.228;20.890;2023-09-19T00:17:42;16.67;;;10.38;;
42084;SDS011;27746;52.228;20.890;2023-09-19T00:20:11;16.92;;;10.32;;
42084;SDS011;27746;52.228;20.890;2023-09-19T00:22:40;15.88;;;10.52;;
42084;SDS011;27746;52.228;20.890;2023-09-19T00:25:08;17.40;;;10.65;;
42084;SDS011;27746;52.228;20.890;2023-09-19T00:27:36;17.75;;;11.20;;
42084;SDS011;27746;52.228;20.890;2023-09-19T00:30:07;15.18;;;10.75;;
42084;SDS011;27746;52.228;20.890;2023-09-19T00:32:39;14.82;;;10.68;;
42084;SDS011;27746;52.228;20.890;2023-09-19T00:35:06;16.27;;;10.20;;
42084;SDS011;27746;52.228;20.890;2023-09-19T00:37:36;17.60;;;10.70;;
42084;SDS011;27746;52.228;20.890;2023-09-19T00:40:05;13.88;;;10.45;;
42084;SDS011;27746;52.228;20.890;2023-09-19T00:42:35;16.17;;;10.80;;
42084;SDS011;27746;52.228;20.890;2023-09-19T00:45:04;15.50;;;10.45;;
42084;SDS011;27746;52.228;20.890;2023-09-19T00:47:31;16.77;;;11.32;;
42084;SDS011;27746;52.228;20.890;2023-09-19T00:49:59;20.08;;;11.98;;
42084;SDS011;27746;52.228;20.890;2023-09-19T00:52:27;15.20;;;11.25;;
42084;SDS011;27746;52.228;20.890;2023-09-19T00:54:56;17.38;;;11.18;;
42084;SDS011;27746;52.228;20.890;2023-09-19T00:57:25;17.83;;;11.75;;
42084;SDS011;27746;52.228;20.890;2023-09-19T00:59:53;21.08;;;12.07;;
42084;SDS011;27746;52.228;20.890;2023-09-19T01:02:21;13.40;;;10.48;;
42084;SDS011;27746;52.228;20.890;2023-09-19T01:04:48;14.63;;;11.00;;
42084;SDS011;27746;52.228;20.890;2023-09-19T01:07:15;16.45;;;11.38;;
42084;SDS011;27746;52.228;20.890;2023-09-19T01:09:43;15.23;;;11.05;;
42084;SDS011;27746;52.228;20.890;2023-09-19T01:12:12;17.38;;;10.60;;
42084;SDS011;27746;52.228;20.890;2023-09-19T01:14:46;16.08;;;11.60;;
42084;SDS011;27746;52.228;20.890;2023-09-19T01:17:20;16.85;;;11.50;;
42084;SDS011;27746;52.228;20.890;2023-09-19T01:20:11;19.05;;;11.20;;
42084;SDS011;27746;52.228;20.890;2023-09-19T01:22:44;18.27;;;11.40;;
42084;SDS011;27746;52.228;20.890;2023-09-19T01:28:10;15.75;;;11.20;;
42084;SDS011;27746;52.228;20.890;2023-09-19T01:30:43;19.52;;;12.25;;
42084;SDS011;27746;52.228;20.890;2023-09-19T01:33:11;16.30;;;11.25;;
42084;SDS011;27746;52.228;20.890;2023-09-19T01:35:39;17.92;;;11.70;;
42084;SDS011;27746;52.228;20.890;2023-09-19T01:38:06;16.15;;;11.90;;
42084;SDS011;27746;52.228;20.890;2023-09-19T01:40:38;17.38;;;11.27;;
42084;SDS011;27746;52.228;20.890;2023-09-19T01:43:09;19.15;;;12.63;;
42084;SDS011;27746;52.228;20.890;2023-09-19T01:45:41;15.30;;;11.10;;
42084;SDS011;27746;52.228;20.890;2023-09-19T01:48:14;17.20;;;11.98;;
42084;SDS011;27746;52.228;20.890;2023-09-19T01:50:49;15.60;;;11.80;;
42084;SDS011;27746;52.228;20.890;2023-09-19T01:53:19;18.65;;;12.15;;
42084;SDS011;27746;52.228;20.890;2023-09-19T01:55:49;15.82;;;11.40;;
42084;SDS011;27746;52.228;20.890;2023-09-19T01:58:20;17.77;;;11.68;;
42084;SDS011;27746;52.228;20.890;2023-09-19T02:00:48;17.30;;;11.07;;
42084;SDS011;27746;52.228;20.890;2023-09-19T02:03:18;19.10;;;12.38;;
42084;SDS011;27746;52.228;20.890;2023-09-19T02:05:48;19.45;;;11.52;;
42084;SDS011;27746;52.228;20.890;2023-09-19T02:08:16;17.83;;;11.68;;
42084;SDS011;27746;52.228;20.890;2023-09-19T02:10:44;18.23;;;12.40;;
42084;SDS011;27746;52.228;20.890;2023-09-19T02:13:14;18.23;;;12.05;;
42084;SDS011;27746;52.228;20.890;2023-09-19T02:15:42;17.60;;;11.60;;
42084;SDS011;27746;52.228;20.890;2023-09-19T02:18:10;18.95;;;11.55;;
42084;SDS011;27746;52.228;20.890;2023-09-19T02:20:39;18.20;;;12.25;;
42084;SDS011;27746;52.228;20.890;2023-09-19T02:23:06;16.38;;;11.65;;
42084;SDS011;27746;52.228;20.890;2023-09-19T02:25:34;18.23;;;11.13;;
42084;SDS011;27746;52.228;20.890;2023-09-19T02:28:03;15.73;;;11.30;;
42084;SDS011;27746;52.228;20.890;2023-09-19T02:30:30;17.65;;;11.10;;
42084;SDS011;27746;52.228;20.890;2023-09-19T02:32:57;19.52;;;11.68;;
42084;SDS011;27746;52.228;20.890;2023-09-19T02:35:26;18.42;;;11.70;;
42084;SDS011;27746;52.228;20.890;2023-09-19T02:37:55;17.95;;;12.55;;
42084;SDS011;27746;52.228;20.890;2023-09-19T02:40:22;15.75;;;11.88;;
42084;SDS011;27746;52.228;20.890;2023-09-19T02:42:53;17.63;;;12.65;;
42084;SDS011;27746;52.228;20.890;2023-09-19T02:45:21;19.38;;;12.15;;
42084;SDS011;27746;52.228;20.890;2023-09-19T02:47:48;19.52;;;12.52;;
42084;SDS011;27746;52.228;20.890;2023-09-19T02:50:16;19.25;;;13.05;;
42084;SDS011;27746;52.228;20.890;2023-09-19T02:52:43;19.45;;;12.57;;
42084;SDS011;27746;52.228;20.890;2023-09-19T02:55:13;19.17;;;12.85;;
42084;SDS011;27746;52.228;20.890;2023-09-19T02:57:44;18.60;;;12.27;;
42084;SDS011;27746;52.228;20.890;2023-09-19T03:00:12;19.10;;;12.15;;
42084;SDS011;27746;52.228;20.890;2023-09-19T03:02:39;19.48;;;12.63;;
42084;SDS011;27746;52.228;20.890;2023-09-19T03:05:07;20.13;;;12.07;;
42084;SDS011;27746;52.228;20.890;2023-09-19T03:07:36;17.40;;;11.77;;
42084;SDS011;27746;52.228;20.890;2023-09-19T03:10:04;15.25;;;11.45;;
42084;SDS011;27746;52.228;20.890;2023-09-19T03:12:33;20.30;;;12.07;;
42084;SDS011;27746;52.228;20.890;2023-09-19T03:15:01;17.75;;;11.52;;
42084;SDS011;27746;52.228;20.890;2023-09-19T03:17:29;19.23;;;11.70;;
42084;SDS011;27746;52.228;20.890;2023-09-19T03:19:57;19.90;;;12.70;;
42084;SDS011;27746;52.228;20.890;2023-09-19T03:22:25;18.50;;;11.68;;
42084;SDS011;27746;52.228;20.890;2023-09-19T03:24:53;17.30;;;11.73;;
42084;SDS011;27746;52.228;20.890;2023-09-19T03:27:20;17.48;;;11.55;;
42084;SDS011;27746;52.228;20.890;2023-09-19T03:29:48;17.30;;;11.98;;
42084;SDS011;27746;52.228;20.890;2023-09-19T03:32:16;18.92;;;13.13;;
42084;SDS011;27746;52.228;20.890;2023-09-19T03:34:43;19.40;;;11.13;;
42084;SDS011;27746;52.228;20.890;2023-09-19T03:37:10;20.08;;;12.18;;
42084;SDS011;27746;52.228;20.890;2023-09-19T03:39:37;18.30;;;12.13;;
42084;SDS011;27746;52.228;20.890;2023-09-19T03:42:04;16.75;;;11.82;;
42084;SDS011;27746;52.228;20.890;2023-09-19T03:44:32;19.50;;;12.05;;
42084;SDS011;27746;52.228;20.890;2023-09-19T03:47:01;17.77;;;12.25;;
42084;SDS011;27746;52.228;20.890;2023-09-19T03:49:29;18.90;;;12.05;;
42084;SDS011;27746;52.228;20.890;2023-09-19T03:51:57;19.60;;;12.23;;
42084;SDS011;27746;52.228;20.890;2023-09-19T03:54:24;17.88;;;13.10;;
42084;SDS011;27746;52.228;20.890;2023-09-19T03:56:51;18.65;;;12.23;;
42084;SDS011;27746;52.228;20.890;2023-09-19T03:59:18;19.23;;;12.68;;
42084;SDS011;27746;52.228;20.890;2023-09-19T04:01:45;17.02;;;11.90;;
42084;SDS011;27746;52.228;20.890;2023-09-19T04:04:14;17.20;;;11.90;;
42084;SDS011;27746;52.228;20.890;2023-09-19T04:06:43;17.60;;;12.38;;
42084;SDS011;27746;52.228;20.890;2023-09-19T04:09:11;20.13;;;12.95;;
42084;SDS011;27746;52.228;20.890;2023-09-19T04:11:38;21.25;;;12.35;;
42084;SDS011;27746;52.228;20.890;2023-09-19T04:14:05;17.48;;;11.73;;
42084;SDS011;27746;52.228;20.890;2023-09-19T04:16:32;18.77;;;12.27;;
42084;SDS011;27746;52.228;20.890;2023-09-19T04:18:59;19.40;;;12.60;;
42084;SDS011;27746;52.228;20.890;2023-09-19T04:21:29;17.73;;;11.55;;
42084;SDS011;27746;52.228;20.890;2023-09-19T04:23:57;24.13;;;12.25;;
42084;SDS011;27746;52.228;20.890;2023-09-19T04:26:24;21.52;;;12.10;;
42084;SDS011;27746;52.228;20.890;2023-09-19T04:28:51;19.00;;;12.10;;
42084;SDS011;27746;52.228;20.890;2023-09-19T04:31:18;17.98;;;12.20;;
42084;SDS011;27746;52.228;20.890;2023-09-19T04:33:47;19.55;;;12.00;;
42084;SDS011;27746;52.228;20.890;2023-09-19T04:36:14;18.60;;;11.75;;
42084;SDS011;27746;52.228;20.890;2023-09-19T04:38:42;18.00;;;12.38;;
42084;SDS011;27746;52.228;20.890;2023-09-19T04:41:10;19.67;;;13.13;;
42084;SDS011;27746;52.228;20.890;2023-09-19T04:43:38;19.35;;;11.98;;
42084;SDS011;27746;52.228;20.890;2023-09-19T04:46:05;16.95;;;11.50;;
42084;SDS011;27746;52.228;20.890;2023-09-19T04:48:32;19.90;;;12.35;;
42084;SDS011;27746;52.228;20.890;2023-09-19T04:51:00;18.38;;;12.40;;
42084;SDS011;27746;52.228;20.890;2023-09-19T04:53:28;19.33;;;12.23;;
42084;SDS011;27746;52.228;20.890;2023-09-19T04:55:56;19.08;;;12.52;;
42084;SDS011;27746;52.228;20.890;2023-09-19T04:58:24;18.25;;;11.38;;
42084;SDS011;27746;52.228;20.890;2023-09-19T05:00:51;16.17;;;11.88;;
42084;SDS011;27746;52.228;20.890;2023-09-19T05:03:20;18.35;;;12.05;;
42084;SDS011;27746;52.228;20.890;2023-09-19T05:05:47;30.20;;;12.68;;
42084;SDS011;27746;52.228;20.890;2023-09-19T05:08:15;21.42;;;13.38;;
42084;SDS011;27746;52.228;20.890;2023-09-19T05:10:42;22.40;;;12.20;;
42084;SDS011;27746;52.228;20.890;2023-09-19T05:13:11;18.98;;;11.43;;
42084;SDS011;27746;52.228;20.890;2023-09-19T05:15:38;16.67;;;11.68;;
42084;SDS011;27746;52.228;20.890;2023-09-19T05:18:06;19.95;;;11.63;;
42084;SDS011;27746;52.228;20.890;2023-09-19T05:20:33;20.15;;;11.73;;
42084;SDS011;27746;52.228;20.890;2023-09-19T05:23:03;20.00;;;11.75;;
42084;SDS011;27746;52.228;20.890;2023-09-19T05:25:36;19.48;;;12.10;;
42084;SDS011;27746;52.228;20.890;2023-09-19T05:28:04;19.52;;;11.70;;
42084;SDS011;27746;52.228;20.890;2023-09-19T05:30:33;20.13;;;10.40;;
42084;SDS011;27746;52.228;20.890;2023-09-19T05:33:03;21.30;;;11.82;;
42084;SDS011;27746;52.228;20.890;2023-09-19T05:35:31;20.17;;;11.73;;
42084;SDS011;27746;52.228;20.890;2023-09-19T05:37:58;18.30;;;11.27;;
42084;SDS011;27746;52.228;20.890;2023-09-19T05:40:25;21.15;;;10.85;;
42084;SDS011;27746;52.228;20.890;2023-09-19T05:42:53;23.58;;;11.15;;
42084;SDS011;27746;52.228;20.890;2023-09-19T05:45:20;21.13;;;12.05;;
42084;SDS011;27746;52.228;20.890;2023-09-19T05:47:49;19.15;;;12.10;;
42084;SDS011;27746;52.228;20.890;2023-09-19T05:50:20;22.23;;;11.38;;
42084;SDS011;27746;52.228;20.890;2023-09-19T05:52:53;18.05;;;11.30;;
42084;SDS011;27746;52.228;20.890;2023-09-19T05:55:21;19.75;;;12.00;;
42084;SDS011;27746;52.228;20.890;2023-09-19T05:57:50;20.48;;;10.52;;
42084;SDS011;27746;52.228;20.890;2023-09-19T06:00:17;25.27;;;12.52;;
42084;SDS011;27746;52.228;20.890;2023-09-19T06:02:50;22.23;;;11.38;;
42084;SDS011;27746;52.228;20.890;2023-09-19T06:05:18;18.73;;;10.57;;
42084;SDS011;27746;52.228;20.890;2023-09-19T06:07:46;17.98;;;10.93;;
42084;SDS011;27746;52.228;20.890;2023-09-19T06:10:13;20.75;;;11.25;;
42084;SDS011;27746;52.228;20.890;2023-09-19T06:12:41;16.73;;;10.75;;
42084;SDS011;27746;52.228;20.890;2023-09-19T06:15:09;17.90;;;11.60;;
42084;SDS011;27746;52.228;20.890;2023-09-19T06:17:40;16.95;;;10.88;;
42084;SDS011;27746;52.228;20.890;2023-09-19T06:20:09;18.63;;;10.98;;
42084;SDS011;27746;52.228;20.890;2023-09-19T06:22:40;17.80;;;10.90;;
42084;SDS011;27746;52.228;20.890;2023-09-19T06:25:08;19.25;;;10.65;;
42084;SDS011;27746;52.228;20.890;2023-09-19T06:27:36;16.73;;;11.75;;
42084;SDS011;27746;52.228;20.890;2023-09-19T06:30:05;20.48;;;11.85;;
42084;SDS011;27746;52.228;20.890;2023-09-19T06:32:33;19.60;;;11.63;;
42084;SDS011;27746;52.228;20.890;2023-09-19T06:35:01;21.67;;;11.35;;
42084;SDS011;27746;52.228;20.890;2023-09-19T06:37:30;16.40;;;10.38;;
42084;SDS011;27746;52.228;20.890;2023-09-19T06:39:57;18.95;;;10.65;;
42084;SDS011;27746;52.228;20.890;2023-09-19T06:42:25;20.02;;;10.32;;
42084;SDS011;27746;52.228;20.890;2023-09-19T06:44:53;18.48;;;12.35;;
42084;SDS011;27746;52.228;20.890;2023-09-19T06:47:21;20.67;;;10.57;;
42084;SDS011;27746;52.228;20.890;2023-09-19T06:49:51;24.48;;;10.90;;
42084;SDS011;27746;52.228;20.890;2023-09-19T06:52:18;20.48;;;10.32;;
42084;SDS011;27746;52.228;20.890;2023-09-19T06:54:48;15.45;;;10.18;;
42084;SDS011;27746;52.228;20.890;2023-09-19T06:57:17;16.65;;;10.85;;
42084;SDS011;27746;52.228;20.890;2023-09-19T06:59:45;17.23;;;11.07;;
42084;SDS011;27746;52.228;20.890;2023-09-19T07:02:12;19.60;;;10.40;;
42084;SDS011;27746;52.228;20.890;2023-09-19T07:04:39;17.95;;;11.38;;
42084;SDS011;27746;52.228;20.890;2023-09-19T07:07:06;13.15;;;9.82;;
42084;SDS011;27746;52.228;20.890;2023-09-19T07:09:35;13.70;;;9.60;;
42084;SDS011;27746;52.228;20.890;2023-09-19T07:12:05;15.93;;;10.18;;
42084;SDS011;27746;52.228;20.890;2023-09-19T07:14:32;19.13;;;10.52;;
42084;SDS011;27746;52.228;20.890;2023-09-19T07:16:59;19.67;;;11.48;;
42084;SDS011;27746;52.228;20.890;2023-09-19T07:19:26;19.17;;;10.32;;
42084;SDS011;27746;52.228;20.890;2023-09-19T07:21:56;16.63;;;11.40;;
42084;SDS011;27746;52.228;20.890;2023-09-19T07:24:24;19.52;;;11.35;;
42084;SDS011;27746;52.228;20.890;2023-09-19T07:26:53;15.10;;;11.73;;
42084;SDS011;27746;52.228;20.890;2023-09-19T07:29:22;18.67;;;12.48;;
42084;SDS011;27746;52.228;20.890;2023-09-19T07:31:51;17.70;;;10.90;;
42084;SDS011;27746;52.228;20.890;2023-09-19T07:34:18;19.80;;;11.30;;
42084;SDS011;27746;52.228;20.890;2023-09-19T07:36:46;16.50;;;10.95;;
42084;SDS011;27746;52.228;20.890;2023-09-19T07:39:14;18.42;;;11.85;;
42084;SDS011;27746;52.228;20.890;2023-09-19T07:41:41;17.42;;;12.27;;
42084;SDS011;27746;52.228;20.890;2023-09-19T07:44:08;17.75;;;11.73;;
42084;SDS011;27746;52.228;20.890;2023-09-19T07:46:37;16.73;;;11.55;;
42084;SDS011;27746;52.228;20.890;2023-09-19T07:49:04;17.63;;;12.05;;
42084;SDS011;27746;52.228;20.890;2023-09-19T07:51:31;16.58;;;11.52;;
42084;SDS011;27746;52.228;20.890;2023-09-19T07:53:59;19.52;;;12.73;;
42084;SDS011;27746;52.228;20.890;2023-09-19T07:56:26;16.95;;;12.13;;
42084;SDS011;27746;52.228;20.890;2023-09-19T07:58:53;17.52;;;11.52;;
42084;SDS011;27746;52.228;20.890;2023-09-19T08:01:22;18.15;;;12.95;;
42084;SDS011;27746;52.228;20.890;2023-09-19T08:03:53;17.05;;;11.70;;
42084;SDS011;27746;52.228;20.890;2023-09-19T08:06:20;21.25;;;12.77;;
42084;SDS011;27746;52.228;20.890;2023-09-19T08:08:50;19.30;;;12.30;;
42084;SDS011;27746;52.228;20.890;2023-09-19T08:11:18;20.80;;;12.60;;
42084;SDS011;27746;52.228;20.890;2023-09-19T08:13:46;17.13;;;11.13;;
42084;SDS011;27746;52.228;20.890;2023-09-19T08:16:14;16.88;;;10.88;;
42084;SDS011;27746;52.228;20.890;2023-09-19T08:18:46;18.25;;;10.68;;
42084;SDS011;27746;52.228;20.890;2023-09-19T08:21:15;15.50;;;10.70;;
42084;SDS011;27746;52.228;20.890;2023-09-19T08:23:44;16.63;;;9.93;;
42084;SDS011;27746;52.228;20.890;2023-09-19T08:26:11;12.57;;;10.02;;
42084;SDS011;27746;52.228;20.890;2023-09-19T08:28:38;12.07;;;9.23;;
42084;SDS011;27746;52.228;20.890;2023-09-19T08:31:06;18.38;;;10.10;;
42084;SDS011;27746;52.228;20.890;2023-09-19T08:33:34;13.32;;;9.90;;
42084;SDS011;27746;52.228;20.890;2023-09-19T08:36:01;13.48;;;9.73;;
42084;SDS011;27746;52.228;20.890;2023-09-19T08:38:30;20.08;;;9.38;;
42084;SDS011;27746;52.228;20.890;2023-09-19T08:40:58;15.82;;;10.07;;
42084;SDS011;27746;52.228;20.890;2023-09-19T08:43:25;18.08;;;10.77;;
42084;SDS011;27746;52.228;20.890;2023-09-19T08:45:54;16.40;;;10.45;;
42084;SDS011;27746;52.228;20.890;2023-09-19T08:48:25;13.32;;;8.95;;
42084;SDS011;27746;52.228;20.890;2023-09-19T08:50:56;16.80;;;10.18;;
42084;SDS011;27746;52.228;20.890;2023-09-19T08:53:27;33.28;;;12.18;;
42084;SDS011;27746;52.228;20.890;2023-09-19T08:58:26;16.77;;;9.57;;
42084;SDS011;27746;52.228;20.890;2023-09-19T09:00:55;22.00;;;10.27;;
42084;SDS011;27746;52.228;20.890;2023-09-19T09:03:23;15.75;;;9.27;;
42084;SDS011;27746;52.228;20.890;2023-09-19T09:05:51;14.63;;;9.95;;
42084;SDS011;27746;52.228;20.890;2023-09-19T09:08:19;17.52;;;9.10;;
42084;SDS011;27746;52.228;20.890;2023-09-19T09:10:46;14.38;;;9.57;;
42084;SDS011;27746;52.228;20.890;2023-09-19T09:13:14;13.95;;;8.73;;
42084;SDS011;27746;52.228;20.890;2023-09-19T09:15:42;13.27;;;9.77;;
42084;SDS011;27746;52.228;20.890;2023-09-19T09:18:10;13.10;;;9.48;;
42084;SDS011;27746;52.228;20.890;2023-09-19T09:20:38;13.18;;;9.50;;
42084;SDS011;27746;52.228;20.890;2023-09-19T09:23:06;15.82;;;9.82;;
42084;SDS011;27746;52.228;20.890;2023-09-19T09:25:49;14.73;;;9.75;;
42084;SDS011;27746;52.228;20.890;2023-09-19T09:28:20;21.40;;;10.95;;
42084;SDS011;27746;52.228;20.890;2023-09-19T09:30:49;24.75;;;10.93;;
42084;SDS011;27746;52.228;20.890;2023-09-19T09:33:16;19.17;;;11.10;;
42084;SDS011;27746;52.228;20.890;2023-09-19T09:35:47;16.40;;;10.52;;
42084;SDS011;27746;52.228;20.890;2023-09-19T09:40:47;18.95;;;10.13;;
42084;SDS011;27746;52.228;20.890;2023-09-19T09:43:28;15.95;;;10.80;;
42084;SDS011;27746;52.228;20.890;2023-09-19T09:46:10;17.52;;;9.70;;
42084;SDS011;27746;52.228;20.890;2023-09-19T09:48:55;17.15;;;10.50;;
42084;SDS011;27746;52.228;20.890;2023-09-19T09:51:50;12.43;;;9.00;;
42084;SDS011;27746;52.228;20.890;2023-09-19T09:54:24;17.27;;;9.65;;
42084;SDS011;27746;52.228;20.890;2023-09-19T09:56:58;15.93;;;10.30;;
42084;SDS011;27746;52.228;20.890;2023-09-19T09:59:43;17.90;;;10.70;;
42084;SDS011;27746;52.228;20.890;2023-09-19T10:02:12;17.70;;;9.60;;
42084;SDS011;27746;52.228;20.890;2023-09-19T10:04:42;16.52;;;10.13;;
42084;SDS011;27746;52.228;20.890;2023-09-19T10:07:28;15.68;;;8.52;;
42084;SDS011;27746;52.228;20.890;2023-09-19T10:10:03;13.95;;;8.43;;
42084;SDS011;27746;52.228;20.890;2023-09-19T10:12:42;10.82;;;6.35;;
42084;SDS011;27746;52.228;20.890;2023-09-19T10:17:42;11.32;;;7.25;;
42084;SDS011;27746;52.228;20.890;2023-09-19T10:20:12;11.43;;;6.72;;
42084;SDS011;27746;52.228;20.890;2023-09-19T10:22:53;11.80;;;7.07;;
42084;SDS011;27746;52.228;20.890;2023-09-19T10:25:25;14.55;;;8.77;;
42084;SDS011;27746;52.228;20.890;2023-09-19T10:27:55;11.75;;;7.75;;
42084;SDS011;27746;52.228;20.890;2023-09-19T10:30:25;11.88;;;7.18;;
42084;SDS011;27746;52.228;20.890;2023-09-19T10:32:55;9.35;;;6.43;;
42084;SDS011;27746;52.228;20.890;2023-09-19T10:35:24;9.77;;;5.28;;
42084;SDS011;27746;52.228;20.890;2023-09-19T10:37:54;8.35;;;5.40;;
42084;SDS011;27746;52.228;20.890;2023-09-19T10:40:24;9.27;;;5.68;;
42084;SDS011;27746;52.228;20.890;2023-09-19T10:42:56;9.70;;;5.65;;
42084;SDS011;27746;52.228;20.890;2023-09-19T10:45:25;10.27;;;5.57;;
42084;SDS011;27746;52.228;20.890;2023-09-19T10:47:54;8.10;;;5.10;;
42084;SDS011;27746;52.228;20.890;2023-09-19T10:50:21;6.97;;;4.72;;
42084;SDS011;27746;52.228;20.890;2023-09-19T10:52:48;9.38;;;5.75;;
42084;SDS011;27746;52.228;20.890;2023-09-19T10:55:24;8.40;;;5.18;;
42084;SDS011;27746;52.228;20.890;2023-09-19T10:57:53;10.98;;;6.15;;
42084;SDS011;27746;52.228;20.890;2023-09-19T11:00:25;10.75;;;5.63;;
42084;SDS011;27746;52.228;20.890;2023-09-19T11:05:40;9.30;;;5.70;;
42084;SDS011;27746;52.228;20.890;2023-09-19T11:08:07;8.02;;;5.55;;
42084;SDS011;27746;52.228;20.890;2023-09-19T11:10:48;8.95;;;6.47;;
42084;SDS011;27746;52.228;20.890;2023-09-19T11:13:25;11.85;;;5.78;;
42084;SDS011;27746;52.228;20.890;2023-09-19T11:16:03;7.55;;;4.97;;
42084;SDS011;27746;52.228;20.890;2023-09-19T11:26:57;8.10;;;5.55;;
42084;SDS011;27746;52.228;20.890;2023-09-19T11:29:35;6.47;;;4.50;;
42084;SDS011;27746;52.228;20.890;2023-09-19T11:32:02;8.18;;;5.20;;
42084;SDS011;27746;52.228;20.890;2023-09-19T11:34:40;8.43;;;5.38;;
42084;SDS011;27746;52.228;20.890;2023-09-19T11:40:08;8.48;;;4.88;;
42084;SDS011;27746;52.228;20.890;2023-09-19T11:42:42;9.63;;;5.75;;
42084;SDS011;27746;52.228;20.890;2023-09-19T11:47:55;8.98;;;5.40;;
42084;SDS011;27746;52.228;20.890;2023-09-19T11:50:23;10.07;;;5.93;;
42084;SDS011;27746;52.228;20.890;2023-09-19T11:52:50;8.88;;;5.95;;
42084;SDS011;27746;52.228;20.890;2023-09-19T11:55:20;9.65;;;5.75;;
42084;SDS011;27746;52.228;20.890;2023-09-19T11:57:49;7.50;;;5.45;;
42084;SDS011;27746;52.228;20.890;2023-09-19T12:00:17;13.70;;;6.53;;
42084;SDS011;27746;52.228;20.890;2023-09-19T12:02:46;10.82;;;5.95;;
42084;SDS011;27746;52.228;20.890;2023-09-19T12:05:14;12.32;;;6.40;;
42084;SDS011;27746;52.228;20.890;2023-09-19T12:07:42;12.13;;;6.88;;
42084;SDS011;27746;52.228;20.890;2023-09-19T12:10:11;9.88;;;5.47;;
42084;SDS011;27746;52.228;20.890;2023-09-19T12:12:45;9.60;;;5.93;;
42084;SDS011;27746;52.228;20.890;2023-09-19T12:15:17;10.88;;;6.57;;
42084;SDS011;27746;52.228;20.890;2023-09-19T12:17:53;9.00;;;6.35;;
42084;SDS011;27746;52.228;20.890;2023-09-19T12:20:21;10.95;;;6.03;;
42084;SDS011;27746;52.228;20.890;2023-09-19T12:22:48;9.07;;;5.80;;
42084;SDS011;27746;52.228;20.890;2023-09-19T12:25:16;10.43;;;6.35;;
42084;SDS011;27746;52.228;20.890;2023-09-19T12:27:45;9.73;;;5.40;;
42084;SDS011;27746;52.228;20.890;2023-09-19T12:30:13;10.77;;;6.03;;
42084;SDS011;27746;52.228;20.890;2023-09-19T12:32:43;9.60;;;6.13;;
42084;SDS011;27746;52.228;20.890;2023-09-19T12:35:26;11.25;;;6.25;;
42084;SDS011;27746;52.228;20.890;2023-09-19T12:37:53;10.85;;;5.90;;
42084;SDS011;27746;52.228;20.890;2023-09-19T12:40:21;9.40;;;6.22;;
42084;SDS011;27746;52.228;20.890;2023-09-19T12:42:52;14.63;;;7.47;;
42084;SDS011;27746;52.228;20.890;2023-09-19T12:45:21;11.63;;;6.55;;
42084;SDS011;27746;52.228;20.890;2023-09-19T12:50:35;9.77;;;6.18;;
42084;SDS011;27746;52.228;20.890;2023-09-19T12:53:03;10.02;;;7.05;;
42084;SDS011;27746;52.228;20.890;2023-09-19T12:55:30;12.88;;;7.38;;
42084;SDS011;27746;52.228;20.890;2023-09-19T12:57:59;9.18;;;7.47;;
42084;SDS011;27746;52.228;20.890;2023-09-19T13:00:33;12.18;;;8.07;;
42084;SDS011;27746;52.228;20.890;2023-09-19T13:03:17;13.50;;;6.25;;
42084;SDS011;27746;52.228;20.890;2023-09-19T13:05:54;12.43;;;6.90;;
42084;SDS011;27746;52.228;20.890;2023-09-19T13:08:26;10.95;;;7.40;;
42084;SDS011;27746;52.228;20.890;2023-09-19T13:11:02;10.50;;;6.47;;
42084;SDS011;27746;52.228;20.890;2023-09-19T13:13:31;12.25;;;6.00;;
42084;SDS011;27746;52.228;20.890;2023-09-19T13:16:01;11.23;;;5.88;;
42084;SDS011;27746;52.228;20.890;2023-09-19T13:18:29;8.48;;;6.05;;
42084;SDS011;27746;52.228;20.890;2023-09-19T13:21:08;15.18;;;6.60;;
42084;SDS011;27746;52.228;20.890;2023-09-19T13:23:37;12.40;;;8.25;;
42084;SDS011;27746;52.228;20.890;2023-09-19T13:26:05;10.95;;;6.82;;
42084;SDS011;27746;52.228;20.890;2023-09-19T13:28:33;12.40;;;7.38;;
42084;SDS011;27746;52.228;20.890;2023-09-19T13:31:01;13.15;;;7.70;;
42084;SDS011;27746;52.228;20.890;2023-09-19T13:33:28;13.80;;;7.15;;
42084;SDS011;27746;52.228;20.890;2023-09-19T13:35:55;11.32;;;7.38;;
42084;SDS011;27746;52.228;20.890;2023-09-19T13:38:24;12.50;;;8.32;;
42084;SDS011;27746;52.228;20.890;2023-09-19T13:40:51;13.57;;;7.70;;
42084;SDS011;27746;52.228;20.890;2023-09-19T13:43:18;18.30;;;8.40;;
42084;SDS011;27746;52.228;20.890;2023-09-19T13:45:47;12.80;;;7.32;;
42084;SDS011;27746;52.228;20.890;2023-09-19T13:48:15;15.52;;;8.20;;
42084;SDS011;27746;52.228;20.890;2023-09-19T13:50:45;17.33;;;7.82;;
42084;SDS011;27746;52.228;20.890;2023-09-19T13:53:13;19.10;;;9.77;;
42084;SDS011;27746;52.228;20.890;2023-09-19T13:55:41;15.32;;;10.07;;
42084;SDS011;27746;52.228;20.890;2023-09-19T13:58:08;15.38;;;9.60;;
42084;SDS011;27746;52.228;20.890;2023-09-19T14:00:36;18.42;;;9.57;;
42084;SDS011;27746;52.228;20.890;2023-09-19T14:03:04;13.73;;;8.75;;
42084;SDS011;27746;52.228;20.890;2023-09-19T14:05:31;13.85;;;9.25;;
42084;SDS011;27746;52.228;20.890;2023-09-19T14:07:58;14.43;;;9.88;;
42084;SDS011;27746;52.228;20.890;2023-09-19T14:10:28;15.93;;;8.88;;
42084;SDS011;27746;52.228;20.890;2023-09-19T14:12:57;14.32;;;9.70;;
42084;SDS011;27746;52.228;20.890;2023-09-19T14:15:25;12.65;;;7.65;;
42084;SDS011;27746;52.228;20.890;2023-09-19T14:17:55;18.65;;;8.57;;
42084;SDS011;27746;52.228;20.890;2023-09-19T14:20:24;9.43;;;6.47;;
42084;SDS011;27746;52.228;20.890;2023-09-19T14:22:52;8.00;;;6.57;;
42084;SDS011;27746;52.228;20.890;2023-09-19T14:25:20;11.80;;;6.35;;
42084;SDS011;27746;52.228;20.890;2023-09-19T14:27:47;9.23;;;4.90;;
42084;SDS011;27746;52.228;20.890;2023-09-19T14:30:16;8.05;;;4.97;;
42084;SDS011;27746;52.228;20.890;2023-09-19T14:32:43;11.18;;;4.90;;
42084;SDS011;27746;52.228;20.890;2023-09-19T14:35:10;7.88;;;5.05;;
42084;SDS011;27746;52.228;20.890;2023-09-19T14:37:40;8.40;;;5.22;;
42084;SDS011;27746;52.228;20.890;2023-09-19T14:40:08;8.55;;;5.57;;
42084;SDS011;27746;52.228;20.890;2023-09-19T14:42:35;8.18;;;4.80;;
42084;SDS011;27746;52.228;20.890;2023-09-19T14:45:03;6.75;;;5.05;;
42084;SDS011;27746;52.228;20.890;2023-09-19T14:47:32;7.00;;;4.82;;
42084;SDS011;27746;52.228;20.890;2023-09-19T14:50:00;13.10;;;5.32;;
42084;SDS011;27746;52.228;20.890;2023-09-19T14:52:27;15.00;;;4.95;;
42084;SDS011;27746;52.228;20.890;2023-09-19T14:54:55;6.07;;;4.30;;
42084;SDS011;27746;52.228;20.890;2023-09-19T14:57:22;7.75;;;5.13;;